createdAt,value
2023-04-02T00:01:18.372Z,1.38
2023-04-02T00:03:46.103Z,1.35
2023-04-02T00:06:34.476Z,1.98
2023-04-02T00:09:22.312Z,1.37
2023-04-02T00:11:54.759Z,2.13
2023-04-02T00:14:33.576Z,1.80
2023-04-02T00:17:02.536Z,1.25
2023-04-02T00:19:38.595Z,1.48
2023-04-02T00:22:06.725Z,1.80
2023-04-02T00:24:34.056Z,1.30
2023-04-02T00:27:01.316Z,2.05
2023-04-02T00:29:28.611Z,1.55
2023-04-02T00:31:56.007Z,1.55
2023-04-02T00:34:31.108Z,0.87
2023-04-02T00:36:58.378Z,0.85
2023-04-02T00:39:34.776Z,1.65
2023-04-02T00:42:05.076Z,1.58
2023-04-02T00:44:42.797Z,1.17
2023-04-02T00:47:22.749Z,1.60
2023-04-02T00:50:01.582Z,1.45
2023-04-02T00:52:30.622Z,0.65
2023-04-02T00:55:23.941Z,3.90
2023-04-02T00:57:51.719Z,1.80
2023-04-02T01:00:48.447Z,1.40
2023-04-02T01:03:19.510Z,3.45
2023-04-02T01:05:50.392Z,1.83
2023-04-02T01:08:49.150Z,2.03
2023-04-02T01:11:44.350Z,2.80
2023-04-02T01:14:34.674Z,1.30
2023-04-02T01:17:30.662Z,2.00
2023-04-02T01:20:36.747Z,1.02
2023-04-02T01:23:18.604Z,0.73
2023-04-02T01:26:09.119Z,1.05
2023-04-02T01:29:06.854Z,2.07
2023-04-02T01:31:34.305Z,2.47
2023-04-02T01:34:02.673Z,1.17
2023-04-02T01:36:33.410Z,1.55
2023-04-02T01:39:24.239Z,2.28
2023-04-02T01:42:06.262Z,1.17
2023-04-02T01:44:42.644Z,0.90
2023-04-02T01:47:14.332Z,1.60
2023-04-02T01:49:44.976Z,2.63
2023-04-02T01:52:25.713Z,1.60
2023-04-02T01:54:53.844Z,4.20
2023-04-02T01:57:21.374Z,1.83
2023-04-02T01:59:48.806Z,1.80
2023-04-02T02:02:16.195Z,0.90
2023-04-02T02:04:43.912Z,4.38
2023-04-02T02:07:16.278Z,4.00
2023-04-02T02:09:47.063Z,2.45
2023-04-02T02:12:14.853Z,1.80
2023-04-02T02:14:49.083Z,2.30
2023-04-02T02:17:26.652Z,1.95
2023-04-02T02:19:57.922Z,1.87
2023-04-02T02:22:28.309Z,2.25
2023-04-02T02:24:56.724Z,1.23
2023-04-02T02:27:24.034Z,1.23
2023-04-02T02:30:06.286Z,1.20
2023-04-02T02:32:33.682Z,0.73
2023-04-02T02:35:08.322Z,0.80
2023-04-02T02:37:37.651Z,1.02
2023-04-02T02:40:06.892Z,2.53
2023-04-02T02:42:37.389Z,2.08
2023-04-02T02:45:07.059Z,0.47
2023-04-02T02:47:35.544Z,1.85
2023-04-02T02:50:12.312Z,0.75
2023-04-02T02:52:40.348Z,1.30
2023-04-02T02:55:17.808Z,1.60
2023-04-02T02:58:32.094Z,0.80
2023-04-02T03:01:16.810Z,0.85
2023-04-02T03:03:44.994Z,3.00
2023-04-02T03:06:16.604Z,1.20
2023-04-02T03:09:12.792Z,1.77
2023-04-02T03:11:45.655Z,1.50
2023-04-02T03:14:29.531Z,1.85
2023-04-02T03:17:00.650Z,2.63
2023-04-02T03:19:50.668Z,2.92
2023-04-02T03:22:26.299Z,3.05
2023-04-02T03:25:01.218Z,2.03
2023-04-02T03:27:38.736Z,2.30
2023-04-02T03:30:44.252Z,3.38
2023-04-02T03:33:34.485Z,1.95
2023-04-02T03:36:22.134Z,1.92
2023-04-02T03:39:13.572Z,2.27
2023-04-02T03:41:45.457Z,1.92
2023-04-02T03:44:44.574Z,2.63
2023-04-02T03:47:15.554Z,1.70
2023-04-02T03:50:43.764Z,2.95
2023-04-02T03:53:11.331Z,1.93
2023-04-02T03:55:40.105Z,2.58
2023-04-02T03:58:21.394Z,2.00
2023-04-02T04:01:12.528Z,4.45
2023-04-02T04:03:43.131Z,4.07
2023-04-02T04:06:32.210Z,2.67
2023-04-02T04:09:11.044Z,2.22
2023-04-02T04:11:43.816Z,2.97
2023-04-02T04:14:20.037Z,1.90
2023-04-02T04:17:06.062Z,2.45
2023-04-02T04:19:34.882Z,2.23
2023-04-02T04:22:15.323Z,2.42
2023-04-02T04:24:45.920Z,3.05
2023-04-02T04:27:33.896Z,3.25
2023-04-02T04:30:24.530Z,3.35
2023-04-02T04:33:23.260Z,3.13
2023-04-02T04:35:56.860Z,2.03
2023-04-02T04:38:39.202Z,3.38
2023-04-02T04:41:17.721Z,3.15
2023-04-02T04:44:07.043Z,3.72
2023-04-02T04:46:45.373Z,2.93
2023-04-02T04:49:31.655Z,3.78
2023-04-02T04:52:10.205Z,3.03
2023-04-02T04:54:38.802Z,3.63
2023-04-02T04:57:07.318Z,2.10
2023-04-02T04:59:46.120Z,4.10
2023-04-02T05:02:18.036Z,3.28
2023-04-02T05:04:49.656Z,3.47
2023-04-02T05:07:23.995Z,3.70
2023-04-02T05:10:15.837Z,3.55
2023-04-02T05:13:21.074Z,2.47
2023-04-02T05:16:23.415Z,3.47
2023-04-02T05:18:56.840Z,3.45
2023-04-02T05:21:42.686Z,2.17
2023-04-02T05:24:14.497Z,3.40
2023-04-02T05:26:43.376Z,2.63
2023-04-02T05:29:31.845Z,3.45
2023-04-02T05:32:03.661Z,2.63
2023-04-02T05:34:33.476Z,2.72
2023-04-02T05:37:00.823Z,3.67
2023-04-02T05:39:28.177Z,3.33
2023-04-02T05:42:04.584Z,3.08
2023-04-02T05:45:18.218Z,3.20
2023-04-02T05:47:46.876Z,6.07
2023-04-02T05:50:22.020Z,3.42
2023-04-02T05:52:53.507Z,4.43
2023-04-02T05:55:35.974Z,3.90
2023-04-02T05:58:37.193Z,3.53
2023-04-02T06:01:47.511Z,4.13
2023-04-02T06:04:41.373Z,4.60
2023-04-02T06:07:16.940Z,5.33
2023-04-02T06:10:05.115Z,4.82
2023-04-02T06:12:45.759Z,6.43
2023-04-02T06:15:15.033Z,7.15
2023-04-02T06:18:28.435Z,9.10
2023-04-02T06:20:56.904Z,7.70
2023-04-02T06:24:09.144Z,10.13
2023-04-02T06:26:40.093Z,11.63
2023-04-02T06:29:11.779Z,10.57
2023-04-02T06:31:40.971Z,10.45
2023-04-02T06:34:21.094Z,10.80
2023-04-02T06:37:01.813Z,11.70
2023-04-02T06:39:31.072Z,8.40
2023-04-02T06:42:11.153Z,8.98
2023-04-02T06:45:00.381Z,7.93
2023-04-02T06:47:48.235Z,8.53
2023-04-02T06:50:44.028Z,7.57
2023-04-02T06:53:25.725Z,8.55
2023-04-02T06:56:04.419Z,7.15
2023-04-02T06:58:33.055Z,6.88
2023-04-02T07:01:02.353Z,7.83
2023-04-02T07:03:39.311Z,6.43
2023-04-02T07:06:18.224Z,7.13
2023-04-02T07:08:47.621Z,7.93
2023-04-02T07:11:20.648Z,10.75
2023-04-02T07:13:49.840Z,6.67
2023-04-02T07:16:22.813Z,7.25
2023-04-02T07:18:50.373Z,6.95
2023-04-02T07:21:18.408Z,7.72
2023-04-02T07:23:46.426Z,8.63
2023-04-02T07:26:19.289Z,8.30
2023-04-02T07:28:46.691Z,7.63
2023-04-02T07:31:17.811Z,10.35
2023-04-02T07:33:45.456Z,8.65
2023-04-02T07:36:20.548Z,6.00
2023-04-02T07:38:47.955Z,7.63
2023-04-02T07:41:15.483Z,5.20
2023-04-02T07:43:42.912Z,6.75
2023-04-02T07:46:10.435Z,5.60
2023-04-02T07:48:37.835Z,5.07
2023-04-02T07:51:05.413Z,4.23
2023-04-02T07:53:34.413Z,6.00
2023-04-02T07:56:02.984Z,4.50
2023-04-02T07:58:30.979Z,3.92
2023-04-02T08:00:58.624Z,5.65
2023-04-02T08:03:26.068Z,4.00
2023-04-02T08:05:54.540Z,3.55
2023-04-02T08:08:22.411Z,5.05
2023-04-02T08:10:49.755Z,3.85
2023-04-02T08:13:17.582Z,5.00
2023-04-02T08:15:44.802Z,3.97
2023-04-02T08:18:12.265Z,3.10
2023-04-02T08:20:39.592Z,3.38
2023-04-02T08:23:13.801Z,1.92
2023-04-02T08:25:41.247Z,1.67
2023-04-02T08:28:08.491Z,2.20
2023-04-02T08:30:36.022Z,3.38
2023-04-02T08:33:03.747Z,2.63
2023-04-02T08:35:31.334Z,2.47
2023-04-02T08:37:58.878Z,2.30
2023-04-02T08:40:48.045Z,2.40
2023-04-02T08:43:15.394Z,2.53
2023-04-02T08:46:02.797Z,2.33
2023-04-02T08:48:31.361Z,1.85
2023-04-02T08:50:59.071Z,4.90
2023-04-02T08:53:31.842Z,2.00
2023-04-02T08:56:08.612Z,2.65
2023-04-02T08:58:43.018Z,1.75
2023-04-02T09:01:40.238Z,1.60
2023-04-02T09:04:14.629Z,1.75
2023-04-02T09:06:43.842Z,2.20
2023-04-02T09:09:14.538Z,3.33
2023-04-02T09:11:44.252Z,3.53
2023-04-02T09:14:34.848Z,1.58
2023-04-02T09:17:02.830Z,2.25
2023-04-02T09:19:40.483Z,3.47
2023-04-02T09:22:21.014Z,1.88
2023-04-02T09:25:05.002Z,2.85
2023-04-02T09:27:33.883Z,2.47
2023-04-02T09:30:21.704Z,1.83
2023-04-02T09:32:49.617Z,1.40
2023-04-02T09:35:39.590Z,1.88
2023-04-02T09:38:21.791Z,1.95
2023-04-02T09:40:49.975Z,1.85
2023-04-02T09:43:19.068Z,2.88
2023-04-02T09:45:56.318Z,1.03
2023-04-02T09:48:30.576Z,3.40
2023-04-02T09:51:25.067Z,1.95
2023-04-02T09:54:04.466Z,2.92
2023-04-02T09:56:38.404Z,2.67
2023-04-02T09:59:05.695Z,1.83
2023-04-02T10:01:37.501Z,1.67
2023-04-02T10:04:05.849Z,2.30
2023-04-02T10:06:33.740Z,2.10
2023-04-02T10:09:34.078Z,1.98
2023-04-02T10:12:02.117Z,1.97
2023-04-02T10:14:49.674Z,2.25
2023-04-02T10:17:31.308Z,2.65
2023-04-02T10:20:17.327Z,2.10
2023-04-02T10:22:45.022Z,2.03
2023-04-02T10:25:16.333Z,3.13
2023-04-02T10:28:32.136Z,2.95
2023-04-02T10:31:10.472Z,1.52
2023-04-02T10:33:38.146Z,1.35
2023-04-02T10:36:40.178Z,2.15
2023-04-02T10:39:21.289Z,2.53
2023-04-02T10:42:01.130Z,2.63
2023-04-02T10:44:30.846Z,3.78
2023-04-02T10:47:22.543Z,3.45
2023-04-02T10:50:20.449Z,2.55
2023-04-02T10:52:56.136Z,4.13
2023-04-02T10:55:30.338Z,3.38
2023-04-02T10:57:58.543Z,3.53
2023-04-02T11:00:27.992Z,6.10
2023-04-02T11:03:06.189Z,2.80
2023-04-02T11:05:53.515Z,2.33
2023-04-02T11:08:30.870Z,4.93
2023-04-02T11:11:03.314Z,3.78
2023-04-02T11:13:36.023Z,3.13
2023-04-02T11:16:03.874Z,4.18
2023-04-02T11:18:36.778Z,4.00
2023-04-02T11:21:07.159Z,1.92
2023-04-02T11:23:57.675Z,1.52
2023-04-02T11:26:33.958Z,3.08
2023-04-02T11:29:13.255Z,2.42
2023-04-02T11:31:40.771Z,1.50
2023-04-02T11:34:13.156Z,2.95
2023-04-02T11:36:55.812Z,1.42
2023-04-02T11:40:00.616Z,1.23
2023-04-02T11:42:35.547Z,1.73
2023-04-02T11:45:24.118Z,2.50
2023-04-02T11:48:00.819Z,1.58
2023-04-02T11:50:34.473Z,1.10
2023-04-02T11:53:10.936Z,3.13
2023-04-02T11:55:42.751Z,1.88
2023-04-02T11:58:10.019Z,2.50
2023-04-02T12:00:55.645Z,1.45
2023-04-02T12:03:53.687Z,1.73
2023-04-02T12:06:59.985Z,1.20
2023-04-02T12:09:46.036Z,2.78
2023-04-02T12:12:40.256Z,2.17
2023-04-02T12:15:26.282Z,1.60
2023-04-02T12:17:53.640Z,3.33
2023-04-02T12:20:27.434Z,2.20
2023-04-02T12:22:55.774Z,1.20
2023-04-02T12:25:33.842Z,1.67
2023-04-02T12:28:10.420Z,3.10
2023-04-02T12:30:38.368Z,2.45
2023-04-02T12:33:37.289Z,1.85
2023-04-02T12:36:16.780Z,1.90
2023-04-02T12:38:55.100Z,1.60
2023-04-02T12:41:24.337Z,1.42
2023-04-02T12:44:01.786Z,2.40
2023-04-02T12:46:29.994Z,2.33
2023-04-02T12:49:26.377Z,2.05
2023-04-02T12:51:53.760Z,1.97
2023-04-02T12:54:21.027Z,2.75
2023-04-02T12:56:48.858Z,2.63
2023-04-02T12:59:34.837Z,2.95
2023-04-02T13:02:04.008Z,2.88
2023-04-02T13:04:31.489Z,2.93
2023-04-02T13:06:59.360Z,1.73
2023-04-02T13:09:39.911Z,1.65
2023-04-02T13:12:19.621Z,4.53
2023-04-02T13:14:46.912Z,4.13
2023-04-02T13:17:55.938Z,3.47
2023-04-02T13:20:34.471Z,5.95
2023-04-02T13:23:23.932Z,2.85
2023-04-02T13:25:51.529Z,2.17
2023-04-02T13:28:19.416Z,2.60
2023-04-02T13:30:46.770Z,1.90
2023-04-02T13:33:14.576Z,3.30
2023-04-02T13:35:42.169Z,1.88
2023-04-02T13:38:09.485Z,3.05
2023-04-02T13:40:37.710Z,2.15
2023-04-02T13:43:05.747Z,2.70
2023-04-02T13:45:35.049Z,3.20
2023-04-02T13:48:03.680Z,3.17
2023-04-02T13:50:32.782Z,3.50
2023-04-02T13:53:04.902Z,5.07
2023-04-02T13:55:32.849Z,5.27
2023-04-02T13:58:00.040Z,4.80
2023-04-02T14:00:27.840Z,3.35
2023-04-02T14:02:59.667Z,2.67
2023-04-02T14:05:48.335Z,2.28
2023-04-02T14:08:34.053Z,2.73
2023-04-02T14:11:04.353Z,1.67
2023-04-02T14:13:31.632Z,1.90
2023-04-02T14:16:37.317Z,1.45
2023-04-02T14:19:23.366Z,1.15
2023-04-02T14:22:00.164Z,1.23
2023-04-02T14:24:51.775Z,1.05
2023-04-02T14:27:44.278Z,1.05
2023-04-02T14:30:14.653Z,4.85
2023-04-02T14:32:44.839Z,2.97
2023-04-02T14:35:24.656Z,2.83
2023-04-02T14:38:15.509Z,3.63
2023-04-02T14:40:50.389Z,4.20
2023-04-02T14:43:20.295Z,3.22
2023-04-02T14:45:50.420Z,2.63
2023-04-02T14:48:26.700Z,3.07
2023-04-02T14:50:58.687Z,4.07
2023-04-02T14:53:56.571Z,3.95
2023-04-02T14:56:24.651Z,2.85
2023-04-02T14:59:05.622Z,4.22
2023-04-02T15:01:41.381Z,3.73
2023-04-02T15:04:12.490Z,3.90
2023-04-02T15:06:49.459Z,4.15
2023-04-02T15:09:44.728Z,3.53
2023-04-02T15:12:36.233Z,3.72
2023-04-02T15:15:39.963Z,4.07
2023-04-02T15:18:16.768Z,4.80
2023-04-02T15:21:11.915Z,5.15
2023-04-02T15:23:55.548Z,5.30
2023-04-02T15:26:50.676Z,5.85
2023-04-02T15:29:45.806Z,2.00
2023-04-02T15:32:27.514Z,3.17
2023-04-02T15:35:35.869Z,4.03
2023-04-02T15:38:22.963Z,1.00
2023-04-02T15:41:23.736Z,2.30
2023-04-02T15:43:57.808Z,2.13
2023-04-02T15:47:02.878Z,2.75
2023-04-02T15:49:48.556Z,2.97
2023-04-02T15:52:40.890Z,2.00
2023-04-02T15:55:46.778Z,2.58
2023-04-02T15:58:30.095Z,3.30
2023-04-02T16:01:08.502Z,3.58
2023-04-02T16:03:57.096Z,4.93
2023-04-02T16:07:09.572Z,3.90
2023-04-02T16:09:55.388Z,4.15
2023-04-02T16:12:23.520Z,6.83
2023-04-02T16:14:50.745Z,6.03
2023-04-02T16:17:47.808Z,5.50
2023-04-02T16:20:27.322Z,5.80
2023-04-02T16:23:12.056Z,5.57
2023-04-02T16:25:44.516Z,5.03
2023-04-02T16:28:25.476Z,5.82
2023-04-02T16:31:14.019Z,6.30
2023-04-02T16:34:02.577Z,5.32
2023-04-02T16:36:53.076Z,6.50
2023-04-02T16:39:53.498Z,7.80
2023-04-02T16:42:35.959Z,7.22
2023-04-02T16:45:26.802Z,7.47
2023-04-02T16:48:14.748Z,6.70
2023-04-02T16:50:55.640Z,6.15
2023-04-02T16:53:31.869Z,7.00
2023-04-02T16:56:23.537Z,7.45
2023-04-02T16:59:03.028Z,5.97
2023-04-02T17:01:33.208Z,6.78
2023-04-02T17:04:00.763Z,7.28
2023-04-02T17:06:31.352Z,7.00
2023-04-02T17:09:18.938Z,7.70
2023-04-02T17:11:50.225Z,7.10
2023-04-02T17:14:20.403Z,7.75
2023-04-02T17:16:50.614Z,9.10
2023-04-02T17:19:18.962Z,6.57
2023-04-02T17:21:47.732Z,8.30
2023-04-02T17:24:34.180Z,7.68
2023-04-02T17:27:23.496Z,6.97
2023-04-02T17:29:53.135Z,9.85
2023-04-02T17:32:26.629Z,6.97
2023-04-02T17:34:54.039Z,7.20
2023-04-02T17:37:35.570Z,7.82
2023-04-02T17:40:28.058Z,7.68
2023-04-02T17:43:12.922Z,7.25
2023-04-02T17:45:50.981Z,8.17
2023-04-02T17:48:40.125Z,7.63
2023-04-02T17:51:31.911Z,8.25
2023-04-02T17:54:16.086Z,9.40
2023-04-02T17:56:55.094Z,7.20
2023-04-02T17:59:31.377Z,7.93
2023-04-02T18:02:21.807Z,9.15
2023-04-02T18:04:56.676Z,9.02
2023-04-02T18:07:42.776Z,8.93
2023-04-02T18:10:42.269Z,7.80
2023-04-02T18:13:31.807Z,8.60
2023-04-02T18:16:22.864Z,8.98
2023-04-02T18:19:03.606Z,7.55
2023-04-02T18:21:52.817Z,9.27
2023-04-02T18:24:29.194Z,8.13
2023-04-02T18:27:04.386Z,7.67
2023-04-02T18:29:41.363Z,8.25
2023-04-02T18:32:27.473Z,7.40
2023-04-02T18:35:15.553Z,7.90
2023-04-02T18:38:36.563Z,9.20
2023-04-02T18:41:22.937Z,8.80
2023-04-02T18:44:11.515Z,10.02
2023-04-02T18:47:03.584Z,9.52
2023-04-02T18:49:40.559Z,7.90
2023-04-02T18:52:15.721Z,8.25
2023-04-02T18:54:50.085Z,8.73
2023-04-02T18:57:26.386Z,7.78
2023-04-02T19:00:31.128Z,8.52
2023-04-02T19:03:07.490Z,8.20
2023-04-02T19:05:35.209Z,8.52
2023-04-02T19:08:06.404Z,9.20
2023-04-02T19:10:35.315Z,8.90
2023-04-02T19:13:02.571Z,9.15
2023-04-02T19:15:54.445Z,10.48
2023-04-02T19:18:53.071Z,9.25
2023-04-02T19:21:29.394Z,8.43
2023-04-02T19:24:30.727Z,10.15
2023-04-02T19:27:23.666Z,10.40
2023-04-02T19:30:15.860Z,8.68
2023-04-02T19:33:01.399Z,9.43
2023-04-02T19:35:29.212Z,9.00
2023-04-02T19:38:20.494Z,9.27
2023-04-02T19:40:51.617Z,11.13
2023-04-02T19:43:18.929Z,9.10
2023-04-02T19:45:47.923Z,8.57
2023-04-02T19:48:17.493Z,7.80
2023-04-02T19:50:45.096Z,9.23
2023-04-02T19:53:12.539Z,8.60
2023-04-02T19:55:40.938Z,8.57
2023-04-02T19:58:28.211Z,9.68
2023-04-02T20:00:55.837Z,8.67
2023-04-02T20:03:23.393Z,8.68
2023-04-02T20:05:51.031Z,9.82
2023-04-02T20:08:18.468Z,9.48
2023-04-02T20:10:45.860Z,8.02
2023-04-02T20:13:13.202Z,8.00
2023-04-02T20:15:41.173Z,10.13
2023-04-02T20:18:09.468Z,8.05
2023-04-02T20:20:37.965Z,8.55
2023-04-02T20:23:05.498Z,8.68
2023-04-02T20:25:32.862Z,8.90
2023-04-02T20:28:01.211Z,7.88
2023-04-02T20:30:28.482Z,8.25
2023-04-02T20:32:58.539Z,8.68
2023-04-02T20:35:26.611Z,7.80
2023-04-02T20:37:54.042Z,8.17
2023-04-02T20:40:21.800Z,8.05
2023-04-02T20:42:49.158Z,7.60
2023-04-02T20:45:16.691Z,7.05
2023-04-02T20:47:43.959Z,7.28
2023-04-02T20:50:11.496Z,7.27
2023-04-02T20:52:38.682Z,7.75
2023-04-02T20:55:06.644Z,9.05
2023-04-02T20:57:34.110Z,8.02
2023-04-02T21:00:03.703Z,7.35
2023-04-02T21:02:31.035Z,6.83
2023-04-02T21:04:58.393Z,8.95
2023-04-02T21:07:25.705Z,7.00
2023-04-02T21:09:53.392Z,8.15
2023-04-02T21:12:20.693Z,8.15
2023-04-02T21:14:48.728Z,8.37
2023-04-02T21:17:16.194Z,7.57
2023-04-02T21:19:43.516Z,7.38
2023-04-02T21:22:10.728Z,7.93
2023-04-02T21:24:38.017Z,7.88
2023-04-02T21:27:05.425Z,7.07
2023-04-02T21:29:32.733Z,8.63
2023-04-02T21:32:01.564Z,7.30
2023-04-02T21:34:32.944Z,7.43
2023-04-02T21:37:00.586Z,9.40
2023-04-02T21:39:27.869Z,8.77
2023-04-02T21:41:55.183Z,7.13
2023-04-02T21:44:23.245Z,6.00
2023-04-02T21:46:53.036Z,7.60
2023-04-02T21:49:22.897Z,7.72
2023-04-02T21:51:51.800Z,7.90
2023-04-02T21:54:19.189Z,8.65
2023-04-02T21:56:46.485Z,7.28
2023-04-02T21:59:14.654Z,7.00
2023-04-02T22:01:47.029Z,9.05
2023-04-02T22:04:21.834Z,8.53
2023-04-02T22:06:49.321Z,8.25
2023-04-02T22:09:23.601Z,7.85
2023-04-02T22:11:54.321Z,10.20
2023-04-02T22:14:21.916Z,7.35
2023-04-02T22:16:49.201Z,10.20
2023-04-02T22:19:16.705Z,7.25
2023-04-02T22:21:43.979Z,7.57
2023-04-02T22:24:13.506Z,6.70
2023-04-02T22:26:41.030Z,8.85
2023-04-02T22:29:08.289Z,8.03
2023-04-02T22:31:35.980Z,9.00
2023-04-02T22:34:04.124Z,6.43
2023-04-02T22:36:31.517Z,7.50
2023-04-02T22:38:59.174Z,7.40
2023-04-02T22:41:28.388Z,6.90
2023-04-02T22:43:56.337Z,6.35
2023-04-02T22:46:23.895Z,6.55
2023-04-02T22:48:51.191Z,5.90
2023-04-02T22:51:19.961Z,5.43
2023-04-02T22:53:47.624Z,6.77
2023-04-02T22:56:19.726Z,7.15
2023-04-02T22:58:47.017Z,6.97
2023-04-02T23:01:15.936Z,7.47
2023-04-02T23:03:43.310Z,6.13
2023-04-02T23:06:13.293Z,6.87
2023-04-02T23:08:40.667Z,5.72
2023-04-02T23:11:10.124Z,5.85
2023-04-02T23:13:37.675Z,6.18
2023-04-02T23:16:07.235Z,5.32
2023-04-02T23:18:35.324Z,5.83
2023-04-02T23:21:02.783Z,5.55
2023-04-02T23:23:30.546Z,5.05
2023-04-02T23:26:13.303Z,6.13
2023-04-02T23:28:40.709Z,5.22
2023-04-02T23:31:11.252Z,8.23
2023-04-02T23:33:38.596Z,5.30
2023-04-02T23:36:16.590Z,6.35
2023-04-02T23:38:43.889Z,5.80
2023-04-02T23:41:15.166Z,5.40
2023-04-02T23:43:42.665Z,5.87
2023-04-02T23:46:09.837Z,6.50
2023-04-02T23:48:37.164Z,6.90
2023-04-02T23:51:04.767Z,6.00
2023-04-02T23:53:33.113Z,6.03
2023-04-02T23:56:00.420Z,6.63
2023-04-02T23:58:27.770Z,5.35
